createdAt,value
2023-01-09T00:01:24.412Z,159.73
2023-01-09T00:04:10.461Z,155.40
2023-01-09T00:06:56.385Z,143.88
2023-01-09T00:09:42.464Z,146.63
2023-01-09T00:12:28.332Z,140.43
2023-01-09T00:15:14.023Z,121.20
2023-01-09T00:17:59.606Z,125.97
2023-01-09T00:20:45.161Z,120.38
2023-01-09T00:23:30.863Z,119.55
2023-01-09T00:26:18.706Z,125.00
2023-01-09T00:29:04.960Z,105.22
2023-01-09T00:31:50.660Z,102.20
2023-01-09T00:34:37.666Z,111.45
2023-01-09T00:37:23.805Z,102.78
2023-01-09T00:40:11.284Z,120.60
2023-01-09T00:42:57.283Z,110.30
2023-01-09T00:45:43.090Z,129.40
2023-01-09T00:48:29.730Z,119.05
2023-01-09T00:51:17.361Z,119.97
2023-01-09T00:54:04.236Z,119.07
2023-01-09T00:56:50.265Z,113.68
2023-01-09T00:59:35.958Z,115.20
2023-01-09T01:02:21.908Z,105.30
2023-01-09T01:05:27.189Z,100.78
2023-01-09T01:08:14.891Z,98.78
2023-01-09T01:11:09.347Z,110.15
2023-01-09T01:13:55.419Z,107.10
2023-01-09T01:16:41.328Z,110.30
2023-01-09T01:19:26.982Z,109.03
2023-01-09T01:22:12.598Z,117.93
2023-01-09T01:24:58.433Z,118.43
2023-01-09T01:27:44.707Z,121.05
2023-01-09T01:30:31.499Z,130.52
2023-01-09T01:33:17.564Z,147.68
2023-01-09T01:36:08.660Z,143.15
2023-01-09T01:38:54.678Z,178.82
2023-01-09T01:41:40.492Z,168.35
2023-01-09T01:45:03.814Z,140.65
2023-01-09T01:47:49.351Z,119.80
2023-01-09T01:50:45.866Z,119.00
2023-01-09T01:53:36.330Z,119.75
2023-01-09T01:56:29.188Z,108.28
2023-01-09T01:59:23.101Z,116.38
2023-01-09T02:02:09.869Z,128.85
2023-01-09T02:04:57.084Z,153.73
2023-01-09T02:07:47.616Z,138.95
2023-01-09T02:10:34.455Z,139.43
2023-01-09T02:13:20.620Z,159.82
2023-01-09T02:16:15.546Z,179.45
2023-01-09T02:19:35.758Z,177.25
2023-01-09T02:22:36.830Z,155.57
2023-01-09T02:25:31.998Z,160.75
2023-01-09T02:28:30.312Z,151.93
2023-01-09T02:31:44.726Z,154.60
2023-01-09T02:35:01.572Z,141.00
2023-01-09T02:38:12.291Z,147.10
2023-01-09T02:41:13.616Z,144.70
2023-01-09T02:44:31.980Z,151.68
2023-01-09T02:47:20.739Z,142.77
2023-01-09T02:50:13.776Z,157.35
2023-01-09T02:53:19.221Z,151.03
2023-01-09T02:56:11.214Z,146.55
2023-01-09T02:59:15.342Z,142.60
2023-01-09T03:02:39.549Z,154.38
2023-01-09T03:05:50.123Z,240.30
2023-01-09T03:08:43.646Z,298.33
2023-01-09T03:14:21.132Z,180.77
2023-01-09T03:17:12.749Z,171.27
2023-01-09T03:20:01.199Z,143.75
2023-01-09T03:22:54.792Z,152.15
2023-01-09T03:25:40.762Z,146.18
2023-01-09T03:28:28.613Z,134.90
2023-01-09T03:31:15.086Z,140.88
2023-01-09T03:34:01.246Z,141.13
2023-01-09T03:36:46.910Z,142.00
2023-01-09T03:39:32.709Z,146.52
2023-01-09T03:42:18.772Z,132.60
2023-01-09T03:45:05.299Z,137.82
2023-01-09T03:47:52.964Z,133.75
2023-01-09T03:50:39.189Z,144.00
2023-01-09T03:53:26.982Z,139.35
2023-01-09T03:56:12.566Z,139.48
2023-01-09T03:58:58.178Z,140.52
2023-01-09T04:01:43.908Z,129.65
2023-01-09T04:04:29.755Z,130.05
2023-01-09T04:07:15.555Z,121.45
2023-01-09T04:10:01.442Z,124.18
2023-01-09T04:12:47.171Z,122.00
2023-01-09T04:15:32.862Z,108.95
2023-01-09T04:18:18.642Z,119.93
2023-01-09T04:21:04.324Z,100.22
2023-01-09T04:23:50.042Z,92.00
2023-01-09T04:26:35.696Z,89.00
2023-01-09T04:29:21.531Z,88.55
2023-01-09T04:32:07.609Z,90.47
2023-01-09T04:34:54.201Z,102.45
2023-01-09T04:37:39.828Z,104.40
2023-01-09T04:40:25.527Z,110.85
2023-01-09T04:43:11.290Z,107.13
2023-01-09T04:45:57.012Z,94.57
2023-01-09T04:48:43.506Z,84.93
2023-01-09T04:51:29.244Z,80.38
2023-01-09T04:54:15.040Z,67.40
2023-01-09T04:57:01.036Z,78.10
2023-01-09T04:59:46.923Z,86.43
2023-01-09T05:02:32.470Z,94.20
2023-01-09T05:05:18.489Z,67.95
2023-01-09T05:08:06.031Z,57.50
2023-01-09T05:10:51.927Z,61.22
2023-01-09T05:13:37.596Z,66.68
2023-01-09T05:16:23.319Z,52.30
2023-01-09T05:19:09.175Z,50.60
2023-01-09T05:21:54.936Z,49.10
2023-01-09T05:24:40.612Z,44.50
2023-01-09T05:27:27.365Z,42.35
2023-01-09T05:30:15.511Z,46.83
2023-01-09T05:33:03.300Z,51.63
2023-01-09T05:35:48.952Z,39.85
2023-01-09T05:38:34.811Z,42.10
2023-01-09T05:41:21.370Z,42.30
2023-01-09T05:44:07.912Z,41.22
2023-01-09T05:46:53.608Z,40.35
2023-01-09T05:49:39.104Z,50.90
2023-01-09T05:52:24.939Z,48.67
2023-01-09T05:55:11.513Z,43.53
2023-01-09T05:57:57.250Z,44.30
2023-01-09T06:00:43.066Z,43.28
2023-01-09T06:03:28.797Z,39.47
2023-01-09T06:06:14.680Z,42.58
2023-01-09T06:09:00.392Z,44.90
2023-01-09T06:11:46.101Z,41.00
2023-01-09T06:14:31.764Z,48.05
2023-01-09T06:17:17.331Z,41.15
2023-01-09T06:20:03.381Z,43.50
2023-01-09T06:22:52.038Z,46.45
2023-01-09T06:25:37.962Z,41.30
2023-01-09T06:28:23.616Z,43.08
2023-01-09T06:31:09.347Z,52.47
2023-01-09T06:33:54.977Z,52.45
2023-01-09T06:36:40.696Z,39.88
2023-01-09T06:39:26.417Z,43.55
2023-01-09T06:42:12.093Z,41.95
2023-01-09T06:45:01.405Z,53.22
2023-01-09T06:47:48.418Z,46.35
2023-01-09T06:50:34.825Z,43.38
2023-01-09T06:53:20.985Z,50.78
2023-01-09T06:56:06.859Z,38.70
2023-01-09T06:58:52.950Z,48.22
2023-01-09T07:01:39.932Z,47.15
2023-01-09T07:04:25.979Z,44.88
2023-01-09T07:07:11.838Z,50.28
2023-01-09T07:09:57.629Z,42.30
2023-01-09T07:12:43.432Z,45.83
2023-01-09T07:15:29.209Z,42.47
2023-01-09T07:18:14.761Z,42.67
2023-01-09T07:21:00.401Z,39.92
2023-01-09T07:23:46.119Z,40.92
2023-01-09T07:26:31.771Z,44.05
2023-01-09T07:29:17.558Z,46.88
2023-01-09T07:32:03.931Z,46.03
2023-01-09T07:34:51.672Z,42.45
2023-01-09T07:37:37.653Z,44.50
2023-01-09T07:40:23.710Z,51.00
2023-01-09T07:43:09.462Z,39.22
2023-01-09T07:45:55.314Z,39.03
2023-01-09T07:48:41.031Z,43.22
2023-01-09T07:51:26.585Z,50.45
2023-01-09T07:54:13.602Z,54.55
2023-01-09T07:56:59.243Z,66.18
2023-01-09T07:59:45.257Z,37.88
2023-01-09T08:02:31.230Z,35.00
2023-01-09T08:05:17.138Z,33.50
2023-01-09T08:08:03.110Z,41.45
2023-01-09T08:10:48.919Z,33.50
2023-01-09T08:13:35.119Z,34.17
2023-01-09T08:16:20.683Z,40.25
2023-01-09T08:19:06.482Z,40.88
2023-01-09T08:21:52.336Z,44.42
2023-01-09T08:24:38.001Z,36.80
2023-01-09T08:27:23.731Z,36.88
2023-01-09T08:30:10.416Z,34.88
2023-01-09T08:32:56.202Z,39.28
2023-01-09T08:35:44.053Z,34.60
2023-01-09T08:38:30.096Z,41.28
2023-01-09T08:41:35.445Z,43.38
2023-01-09T08:44:40.214Z,36.92
2023-01-09T08:47:27.382Z,31.50
2023-01-09T08:50:13.409Z,50.42
2023-01-09T08:52:59.098Z,51.15
2023-01-09T08:55:45.015Z,41.92
2023-01-09T08:58:30.917Z,39.63
2023-01-09T09:01:16.906Z,46.88
2023-01-09T09:04:05.368Z,43.42
2023-01-09T09:06:51.297Z,47.38
2023-01-09T09:09:37.009Z,39.60
2023-01-09T09:12:23.041Z,35.30
2023-01-09T09:15:12.699Z,36.55
2023-01-09T09:18:04.350Z,42.20
2023-01-09T09:20:50.143Z,28.15
2023-01-09T09:23:35.815Z,26.40
2023-01-09T09:26:21.478Z,37.47
2023-01-09T09:29:07.210Z,43.33
2023-01-09T09:31:53.445Z,40.95
2023-01-09T09:34:39.408Z,44.78
2023-01-09T09:37:25.122Z,41.15
2023-01-09T09:40:19.236Z,40.80
2023-01-09T09:43:57.781Z,35.67
2023-01-09T09:47:20.396Z,44.38
2023-01-09T09:50:34.361Z,34.60
2023-01-09T09:53:40.365Z,40.08
2023-01-09T09:56:27.986Z,39.47
2023-01-09T09:59:25.552Z,25.67
2023-01-09T10:02:17.028Z,34.67
2023-01-09T10:05:12.064Z,32.10
2023-01-09T10:08:15.357Z,35.15
2023-01-09T10:11:02.401Z,39.78
2023-01-09T10:14:22.875Z,35.97
2023-01-09T10:17:21.932Z,43.10
2023-01-09T10:20:12.357Z,43.65
2023-01-09T10:23:06.792Z,28.63
2023-01-09T10:25:58.570Z,44.67
2023-01-09T10:28:50.716Z,52.95
2023-01-09T10:32:14.096Z,34.65
2023-01-09T10:35:09.165Z,36.08
2023-01-09T10:37:57.762Z,38.15
2023-01-09T10:41:07.787Z,33.75
2023-01-09T10:44:18.077Z,35.92
2023-01-09T10:47:09.412Z,37.40
2023-01-09T10:49:55.980Z,42.08
2023-01-09T10:52:42.890Z,33.15
2023-01-09T10:55:44.243Z,44.20
2023-01-09T10:58:30.043Z,37.95
2023-01-09T11:01:24.305Z,37.63
2023-01-09T11:04:29.848Z,43.88
2023-01-09T11:07:22.355Z,47.83
2023-01-09T11:10:12.000Z,47.45
2023-01-09T11:13:17.813Z,55.13
2023-01-09T11:17:01.588Z,51.88
2023-01-09T11:20:18.059Z,42.80
2023-01-09T11:23:04.134Z,43.20
2023-01-09T11:25:55.957Z,50.83
2023-01-09T11:28:41.905Z,40.10
2023-01-09T11:31:29.631Z,30.08
2023-01-09T11:34:22.469Z,47.40
2023-01-09T11:37:12.443Z,27.45
2023-01-09T11:39:59.948Z,35.22
2023-01-09T11:43:21.614Z,32.63
2023-01-09T11:46:13.488Z,33.17
2023-01-09T11:49:00.161Z,31.27
2023-01-09T11:51:46.421Z,24.42
2023-01-09T11:54:35.181Z,30.90
2023-01-09T11:57:22.508Z,23.50
2023-01-09T12:00:26.025Z,27.27
2023-01-09T12:03:56.248Z,39.45
2023-01-09T12:07:16.286Z,25.63
2023-01-09T12:10:12.128Z,22.52
2023-01-09T12:13:08.138Z,19.70
2023-01-09T12:16:23.334Z,21.55
2023-01-09T12:19:34.359Z,23.83
2023-01-09T12:22:32.176Z,31.58
2023-01-09T12:25:29.157Z,29.40
2023-01-09T12:28:34.713Z,39.72
2023-01-09T12:31:24.304Z,22.05
2023-01-09T12:34:53.228Z,26.65
2023-01-09T12:37:51.380Z,18.58
2023-01-09T12:40:53.348Z,25.15
2023-01-09T12:43:58.443Z,23.77
2023-01-09T12:47:03.459Z,45.58
2023-01-09T12:49:53.851Z,27.85
2023-01-09T12:52:44.344Z,45.53
2023-01-09T12:55:34.572Z,30.10
2023-01-09T12:58:55.260Z,34.63
2023-01-09T13:01:46.217Z,24.65
2023-01-09T13:04:36.354Z,24.83
2023-01-09T13:07:26.302Z,21.33
2023-01-09T13:10:47.500Z,21.75
2023-01-09T13:13:45.688Z,38.13
2023-01-09T13:16:35.752Z,102.40
2023-01-09T13:19:40.034Z,19.52
2023-01-09T13:25:25.539Z,20.13
2023-01-09T13:28:35.130Z,16.17
2023-01-09T13:31:48.828Z,15.50
2023-01-09T13:34:36.238Z,18.17
2023-01-09T13:37:27.959Z,31.33
2023-01-09T13:40:33.112Z,19.17
2023-01-09T13:43:19.151Z,26.20
2023-01-09T13:46:05.603Z,21.17
2023-01-09T13:48:51.418Z,24.13
2023-01-09T13:51:57.041Z,24.58
2023-01-09T13:54:55.622Z,22.05
2023-01-09T13:58:14.968Z,22.75
2023-01-09T14:01:04.724Z,25.50
2023-01-09T14:04:27.587Z,21.27
2023-01-09T14:07:25.413Z,26.05
2023-01-09T14:10:24.497Z,25.13
2023-01-09T14:13:38.409Z,24.67
2023-01-09T14:16:27.117Z,21.50
2023-01-09T14:19:16.437Z,20.10
2023-01-09T14:22:02.896Z,24.40
2023-01-09T14:24:52.705Z,27.13
2023-01-09T14:28:06.815Z,23.40
2023-01-09T14:30:53.790Z,15.93
2023-01-09T14:33:40.033Z,22.98
2023-01-09T14:36:29.464Z,15.95
2023-01-09T14:39:15.682Z,20.98
2023-01-09T14:42:15.685Z,24.25
2023-01-09T14:45:18.385Z,21.13
2023-01-09T14:48:06.355Z,22.98
2023-01-09T14:50:55.877Z,41.38
2023-01-09T14:53:43.208Z,30.40
2023-01-09T14:56:31.233Z,30.27
2023-01-09T14:59:19.350Z,34.75
2023-01-09T15:02:09.804Z,28.50
2023-01-09T15:04:59.147Z,26.40
2023-01-09T15:08:01.463Z,24.88
2023-01-09T15:10:54.232Z,24.40
2023-01-09T15:13:46.445Z,34.90
2023-01-09T15:16:32.943Z,32.38
2023-01-09T15:19:19.948Z,26.55
2023-01-09T15:22:22.807Z,28.40
2023-01-09T15:25:27.327Z,25.38
2023-01-09T15:28:42.060Z,27.55
2023-01-09T15:31:28.843Z,25.95
2023-01-09T15:34:18.803Z,38.47
2023-01-09T15:37:05.196Z,32.28
2023-01-09T15:39:51.127Z,29.60
2023-01-09T15:42:57.276Z,23.85
2023-01-09T15:45:45.330Z,34.13
2023-01-09T15:48:34.209Z,35.40
2023-01-09T15:51:20.734Z,36.17
2023-01-09T15:54:06.369Z,45.05
2023-01-09T15:56:52.342Z,36.45
2023-01-09T15:59:38.737Z,36.25
2023-01-09T16:02:44.936Z,37.15
2023-01-09T16:05:33.177Z,30.92
2023-01-09T16:08:40.114Z,36.28
2023-01-09T16:11:29.888Z,39.63
2023-01-09T16:14:22.914Z,32.85
2023-01-09T16:17:17.728Z,30.77
2023-01-09T16:20:25.117Z,27.25
2023-01-09T16:23:25.371Z,27.40
2023-01-09T16:26:13.684Z,24.63
2023-01-09T16:29:40.256Z,32.03
2023-01-09T16:32:48.127Z,32.50
2023-01-09T16:35:34.885Z,27.08
2023-01-09T16:38:22.586Z,27.40
2023-01-09T16:41:35.256Z,33.08
2023-01-09T16:44:21.277Z,24.65
2023-01-09T16:47:11.849Z,23.10
2023-01-09T16:49:58.068Z,29.45
2023-01-09T16:52:45.824Z,29.58
2023-01-09T16:55:32.326Z,24.92
2023-01-09T16:58:22.956Z,23.08
2023-01-09T17:01:10.476Z,27.13
2023-01-09T17:03:56.729Z,23.20
2023-01-09T17:06:43.083Z,29.35
2023-01-09T17:09:32.956Z,27.00
2023-01-09T17:12:21.017Z,22.73
2023-01-09T17:15:08.174Z,28.70
2023-01-09T17:17:54.001Z,25.52
2023-01-09T17:20:41.291Z,27.60
2023-01-09T17:23:26.864Z,25.85
2023-01-09T17:26:40.106Z,21.65
2023-01-09T17:29:30.182Z,23.03
2023-01-09T17:32:17.234Z,30.77
2023-01-09T17:35:03.429Z,34.92
2023-01-09T17:37:49.466Z,37.30
2023-01-09T17:40:35.238Z,42.47
2023-01-09T17:43:21.414Z,35.55
2023-01-09T17:46:10.757Z,32.97
2023-01-09T17:48:57.327Z,34.28
2023-01-09T17:51:43.142Z,46.88
2023-01-09T17:54:29.015Z,35.05
2023-01-09T17:57:16.660Z,31.58
2023-01-09T18:00:06.520Z,36.78
2023-01-09T18:02:53.167Z,32.17
2023-01-09T18:05:38.954Z,33.70
2023-01-09T18:08:24.835Z,33.30
2023-01-09T18:11:19.505Z,36.20
2023-01-09T18:14:05.397Z,33.72
2023-01-09T18:16:51.149Z,35.60
2023-01-09T18:19:36.809Z,31.48
2023-01-09T18:22:22.550Z,36.38
2023-01-09T18:25:08.722Z,36.60
2023-01-09T18:27:54.485Z,28.45
2023-01-09T18:30:40.334Z,34.22
2023-01-09T18:33:26.017Z,36.97
2023-01-09T18:36:12.159Z,35.35
2023-01-09T18:39:00.123Z,35.85
2023-01-09T18:41:45.744Z,37.25
2023-01-09T18:44:31.393Z,33.28
2023-01-09T18:47:17.028Z,33.22
2023-01-09T18:50:02.706Z,33.88
2023-01-09T18:52:48.502Z,34.13
2023-01-09T18:55:36.507Z,33.13
2023-01-09T18:58:22.475Z,51.67
2023-01-09T19:01:08.397Z,34.08
2023-01-09T19:03:56.080Z,37.72
2023-01-09T19:06:41.821Z,33.95
2023-01-09T19:09:28.085Z,34.80
2023-01-09T19:12:14.042Z,28.70
2023-01-09T19:15:00.456Z,32.78
2023-01-09T19:17:47.111Z,33.70
2023-01-09T19:20:33.233Z,44.63
2023-01-09T19:23:20.001Z,31.80
2023-01-09T19:26:08.622Z,39.42
2023-01-09T19:28:55.561Z,34.97
2023-01-09T19:31:41.996Z,37.20
2023-01-09T19:34:28.364Z,30.08
2023-01-09T19:37:14.348Z,34.17
2023-01-09T19:40:00.302Z,26.90
2023-01-09T19:42:45.980Z,32.47
2023-01-09T19:45:31.733Z,32.03
2023-01-09T19:48:17.789Z,33.60
2023-01-09T19:51:05.501Z,34.67
2023-01-09T19:56:45.720Z,33.97
2023-01-09T19:59:31.819Z,33.13
2023-01-09T20:02:17.768Z,34.00
2023-01-09T20:05:03.909Z,31.23
2023-01-09T20:07:55.991Z,30.65
2023-01-09T20:10:42.011Z,31.10
2023-01-09T20:13:27.982Z,29.80
2023-01-09T20:16:17.058Z,25.70
2023-01-09T20:19:07.700Z,25.13
2023-01-09T20:21:53.586Z,27.63
2023-01-09T20:24:39.422Z,27.23
2023-01-09T20:27:25.541Z,24.42
2023-01-09T20:30:11.770Z,29.92
2023-01-09T20:32:58.771Z,27.13
2023-01-09T20:35:45.931Z,26.00
2023-01-09T20:38:32.945Z,30.15
2023-01-09T20:41:25.561Z,25.92
2023-01-09T20:44:13.545Z,29.63
2023-01-09T20:46:59.543Z,32.13
2023-01-09T20:49:45.379Z,30.48
2023-01-09T20:52:30.968Z,32.03
2023-01-09T20:55:16.779Z,29.13
2023-01-09T20:58:02.618Z,27.20
2023-01-09T21:00:48.290Z,28.65
2023-01-09T21:03:34.575Z,32.30
2023-01-09T21:06:21.948Z,30.90
2023-01-09T21:09:07.942Z,26.67
2023-01-09T21:11:54.130Z,23.55
2023-01-09T21:14:39.895Z,32.10
2023-01-09T21:17:25.643Z,32.80
2023-01-09T21:20:14.086Z,29.38
2023-01-09T21:23:00.411Z,30.17
2023-01-09T21:25:48.893Z,25.05
2023-01-09T21:28:43.729Z,24.70
2023-01-09T21:31:34.837Z,33.15
2023-01-09T21:34:20.985Z,22.83
2023-01-09T21:37:07.206Z,23.65
2023-01-09T21:39:52.836Z,23.48
2023-01-09T21:42:57.133Z,24.55
2023-01-09T21:46:01.907Z,18.98
2023-01-09T21:48:47.791Z,22.77
2023-01-09T21:51:39.353Z,19.95
2023-01-09T21:54:25.470Z,19.35
2023-01-09T21:57:11.520Z,20.25
2023-01-09T21:59:57.207Z,24.67
2023-01-09T22:02:44.041Z,17.75
2023-01-09T22:05:29.861Z,21.95
2023-01-09T22:08:15.642Z,24.13
2023-01-09T22:11:01.543Z,19.83
2023-01-09T22:13:48.400Z,20.20
2023-01-09T22:16:34.441Z,16.38
2023-01-09T22:19:20.472Z,17.98
2023-01-09T22:22:08.568Z,19.05
2023-01-09T22:24:54.560Z,23.65
2023-01-09T22:27:40.385Z,14.82
2023-01-09T22:30:26.085Z,20.10
2023-01-09T22:33:11.800Z,16.17
2023-01-09T22:35:57.452Z,21.77
2023-01-09T22:38:43.145Z,19.00
2023-01-09T22:41:32.224Z,17.48
2023-01-09T22:44:19.155Z,15.35
2023-01-09T22:47:05.119Z,18.52
2023-01-09T22:49:53.443Z,14.23
2023-01-09T22:52:39.709Z,14.13
2023-01-09T22:55:25.309Z,15.98
2023-01-09T22:58:10.931Z,15.95
2023-01-09T23:00:56.934Z,17.38
2023-01-09T23:03:42.842Z,13.57
2023-01-09T23:06:28.569Z,13.60
2023-01-09T23:09:14.222Z,22.60
2023-01-09T23:12:03.130Z,17.30
2023-01-09T23:14:49.599Z,18.75
2023-01-09T23:17:36.488Z,12.85
2023-01-09T23:20:22.106Z,18.42
2023-01-09T23:23:07.971Z,17.92
2023-01-09T23:25:56.345Z,18.70
2023-01-09T23:28:42.099Z,15.98
2023-01-09T23:31:27.829Z,16.55
2023-01-09T23:34:15.654Z,15.95
2023-01-09T23:37:01.638Z,19.75
2023-01-09T23:39:47.491Z,17.02
2023-01-09T23:42:51.561Z,14.80
2023-01-09T23:45:42.303Z,14.25
2023-01-09T23:48:28.916Z,14.63
2023-01-09T23:51:14.822Z,12.90
2023-01-09T23:54:00.465Z,14.27
2023-01-09T23:56:46.175Z,19.73
2023-01-09T23:59:32.067Z,12.27
